Terminal Aerodrome Forecast
Issued by NWS Shreveport, LA

Home | Current Version | Previous Version | Text Only | Print | Product List | Glossary On
Versions: 1 2 3 4 5 6 7 8 9 10 11 12 13 14 15
000
FTUS44 KSHV 302320
TAFGGG
TAF
KGGG 302320Z 0100/0124 24008KT P6SM FEW050
     FM010100 23006KT P6SM BKN050 BKN150
     FM011100 VRB03KT 5SM BR BKN015
     FM011400 21015G22KT P6SM SCT050=

USA.gov is the U.S. government's official web portal to all federal, state and local government web resources and services.